Time;durP1;ratioP1;P1;durP2;ratioP2;P2;SDS_P1;SDS_P2;PMS_P1;PMS_P2;Temp;Humidity;BMP_temperature;BMP_pressure;BME280_temperature;BME280_humidity;BME280_pressure;Samples;Min_cycle;Max_cycle;Signal;HPM_P1;HPM_P2
2024/02/13 00:04:14;;;;;;;16.67;8.88;;;;;;;4.57;100.00;101282.09;10335808;28;20045;-70
2024/02/13 00:09:15;;;;;;;11.00;6.43;;;;;;;4.54;100.00;101298.47;10333863;28;20030;-69
2024/02/13 00:14:15;;;;;;;11.27;7.72;;;;;;;4.48;100.00;101299.91;10334215;28;20470;-72
2024/02/13 00:19:16;;;;;;;9.70;8.77;;;;;;;4.46;100.00;101304.56;10348923;28;20130;-70
2024/02/13 00:24:16;;;;;;;12.40;9.43;;;;;;;4.49;100.00;101312.31;10334635;28;20085;-70
2024/02/13 00:29:18;;;;;;;11.82;9.55;;;;;;;4.48;100.00;101316.00;10335174;28;20045;-69
2024/02/13 00:34:21;;;;;;;13.55;11.10;;;;;;;4.47;100.00;101319.69;10334414;28;20069;-70
2024/02/13 00:39:22;;;;;;;13.45;10.57;;;;;;;4.50;100.00;101318.53;10334585;28;20034;-71
2024/02/13 00:44:22;;;;;;;13.65;10.73;;;;;;;4.52;100.00;101321.91;10332949;28;20455;-71
2024/02/13 00:49:23;;;;;;;16.33;12.75;;;;;;;4.53;100.00;101328.97;10333578;28;20038;-69
2024/02/13 00:54:24;;;;;;;17.05;11.77;;;;;;;4.55;100.00;101332.34;10335695;28;20141;-69
2024/02/13 00:59:25;;;;;;;19.20;13.40;;;;;;;4.56;100.00;101340.25;10334236;28;20034;-71
2024/02/13 01:04:26;;;;;;;27.23;14.00;;;;;;;4.62;100.00;101338.81;10331548;28;20386;-70
2024/02/13 01:09:27;;;;;;;13.80;12.40;;;;;;;4.59;100.00;101337.25;10332409;28;20044;-70
2024/02/13 01:14:27;;;;;;;18.95;14.18;;;;;;;4.62;100.00;101347.69;10331664;28;20049;-71
2024/02/13 01:19:27;;;;;;;19.38;14.52;;;;;;;4.59;100.00;101341.78;10336151;28;20058;-71
2024/02/13 01:24:29;;;;;;;15.38;13.10;;;;;;;4.58;100.00;101348.97;10324331;28;20513;-70
2024/02/13 01:29:29;;;;;;;31.08;16.88;;;;;;;4.66;100.00;101348.28;10339859;28;20030;-73
2024/02/13 01:34:30;;;;;;;27.63;16.60;;;;;;;4.63;100.00;101346.72;10338560;28;20046;-73
2024/02/13 01:39:30;;;;;;;17.75;14.85;;;;;;;4.61;100.00;101340.66;10338930;28;20074;-69
2024/02/13 01:44:31;;;;;;;15.60;14.10;;;;;;;4.63;100.00;101348.56;10355275;28;20042;-70
2024/02/13 01:49:31;;;;;;;15.40;13.65;;;;;;;4.57;100.00;101344.63;10341203;28;20034;-70
2024/02/13 01:54:31;;;;;;;23.52;14.30;;;;;;;4.63;100.00;101346.72;10338681;28;20030;-70
2024/02/13 01:59:32;;;;;;;18.05;11.45;;;;;;;4.61;100.00;101347.84;10339476;28;20066;-70
2024/02/13 02:04:32;;;;;;;25.83;12.10;;;;;;;4.64;100.00;101343.03;10338999;28;20038;-70
2024/02/13 02:09:33;;;;;;;14.40;12.80;;;;;;;4.65;100.00;101343.88;10321075;28;20553;-71
2024/02/13 02:14:33;;;;;;;20.77;10.88;;;;;;;4.68;100.00;101348.94;10339733;28;20106;-71
2024/02/13 02:19:34;;;;;;;13.02;10.48;;;;;;;4.66;100.00;101340.22;10339067;28;20070;-69
2024/02/13 02:24:34;;;;;;;12.30;10.45;;;;;;;4.68;100.00;101343.56;10337669;28;20057;-70
2024/02/13 02:29:37;;;;;;;16.48;10.90;;;;;;;4.71;100.00;101353.19;10338357;28;20106;-70
2024/02/13 02:34:39;;;;;;;14.82;9.10;;;;;;;4.72;100.00;101344.97;10322344;28;20097;-73
2024/02/13 02:39:39;;;;;;;17.33;9.05;;;;;;;4.67;100.00;101347.25;10339693;28;20086;-71
2024/02/13 02:44:40;;;;;;;23.00;8.63;;;;;;;4.65;100.00;101354.59;10337068;28;20390;-72
2024/02/13 02:49:40;;;;;;;11.98;8.73;;;;;;;4.61;100.00;101358.59;10336206;28;20112;-70
2024/02/13 02:54:42;;;;;;;11.43;6.90;;;;;;;4.63;100.00;101364.66;10340872;28;20030;-70
2024/02/13 02:59:45;;;;;;;9.43;8.13;;;;;;;4.57;100.00;101357.19;10337813;28;20106;-69
2024/02/13 03:04:47;;;;;;;12.80;9.20;;;;;;;4.54;100.00;101373.59;10329365;28;20034;-69
2024/02/13 03:09:48;;;;;;;16.92;8.77;;;;;;;4.45;100.00;101371.78;10338974;28;20057;-70
2024/02/13 03:14:50;;;;;;;12.77;10.05;;;;;;;4.50;100.00;101366.78;10335777;28;20031;-70
2024/02/13 03:19:51;;;;;;;10.98;8.07;;;;;;;4.41;100.00;101368.53;10335671;28;20042;-70
2024/02/13 03:24:51;;;;;;;14.10;9.95;;;;;;;4.42;100.00;101359.50;10336738;28;20050;-69
2024/02/13 03:29:52;;;;;;;14.45;9.50;;;;;;;4.35;100.00;101353.88;10335980;28;20046;-71
2024/02/13 03:34:53;;;;;;;10.68;6.90;;;;;;;4.33;100.00;101360.38;10335869;28;20053;-71
2024/02/13 03:39:53;;;;;;;10.60;8.95;;;;;;;4.33;100.00;101371.94;10351206;28;20109;-71
2024/02/13 03:44:54;;;;;;;11.15;8.75;;;;;;;4.33;100.00;101366.56;10368217;28;20066;-72
2024/02/13 03:49:55;;;;;;;15.30;8.50;;;;;;;4.32;100.00;101362.22;10341474;28;20042;-71
2024/02/13 03:54:57;;;;;;;14.73;8.75;;;;;;;4.32;100.00;101367.56;10342780;28;20030;-69
2024/02/13 03:59:57;;;;;;;15.40;7.97;;;;;;;4.37;100.00;101364.44;10342067;28;20058;-71
2024/02/13 04:04:58;;;;;;;16.83;9.88;;;;;;;4.39;100.00;101379.41;10338821;28;20030;-71
2024/02/13 04:09:59;;;;;;;11.73;7.43;;;;;;;4.39;100.00;101376.72;10339219;28;20504;-69
2024/02/13 04:15:00;;;;;;;14.93;8.48;;;;;;;4.40;100.00;101373.06;10338967;28;20501;-70
2024/02/13 04:20:01;;;;;;;8.48;7.15;;;;;;;4.37;100.00;101368.00;10337492;28;20046;-71
2024/02/13 04:25:01;;;;;;;13.02;7.28;;;;;;;4.32;100.00;101386.34;10317558;28;20486;-70
2024/02/13 04:30:03;;;;;;;12.98;9.63;;;;;;;4.37;100.00;101378.72;10333086;28;20106;-69
2024/02/13 04:35:05;;;;;;;12.23;8.55;;;;;;;4.45;100.00;101386.03;10334143;28;20057;-72
2024/02/13 04:40:06;;;;;;;11.25;9.00;;;;;;;4.49;100.00;101390.09;10333788;28;20404;-70
2024/02/13 04:45:07;;;;;;;13.95;9.18;;;;;;;4.47;100.00;101388.53;10332864;28;20074;-71
2024/02/13 04:50:07;;;;;;;24.13;9.88;;;;;;;4.47;100.00;101399.25;10333250;28;20434;-69
2024/02/13 04:55:08;;;;;;;13.45;8.82;;;;;;;4.44;100.00;101389.69;10330843;28;20030;-70
2024/02/13 05:00:24;;;;;;;12.68;8.35;;;;;;;4.51;100.00;101387.28;10331875;28;20387;-71
2024/02/13 05:10:44;;;;;;;9.60;8.57;;;;;;;4.46;100.00;101389.53;10336442;28;20046;-71
2024/02/13 05:15:46;;;;;;;23.58;8.00;;;;;;;4.37;100.00;101393.94;10334053;28;20125;-70
2024/02/13 05:20:47;;;;;;;16.08;8.48;;;;;;;4.27;100.00;101395.78;10334290;28;20038;-69
2024/02/13 05:25:48;;;;;;;14.93;8.40;;;;;;;4.33;100.00;101404.09;10336152;28;20051;-71
2024/02/13 05:30:49;;;;;;;9.77;7.05;;;;;;;4.38;100.00;101392.97;10337959;28;20502;-70
2024/02/13 05:35:49;;;;;;;7.03;6.20;;;;;;;4.47;100.00;101386.72;10333964;28;20053;-71
2024/02/13 05:40:50;;;;;;;16.17;6.90;;;;;;;4.43;100.00;101380.81;10337669;28;20034;-70
2024/02/13 05:45:50;;;;;;;18.52;7.60;;;;;;;4.41;100.00;101388.16;10321741;28;20041;-69
2024/02/13 05:50:51;;;;;;;12.45;5.05;;;;;;;4.41;100.00;101385.47;10336573;28;20034;-69
2024/02/13 05:55:51;;;;;;;8.13;5.47;;;;;;;4.40;100.00;101378.44;10332674;28;20038;-72
2024/02/13 06:00:52;;;;;;;8.57;6.15;;;;;;;4.45;100.00;101385.19;10335745;28;20125;-71
2024/02/13 06:05:54;;;;;;;9.57;5.45;;;;;;;4.40;100.00;101383.78;10336209;28;20041;-70
2024/02/13 06:10:55;;;;;;;6.30;5.80;;;;;;;4.31;100.00;101379.28;10338590;28;20027;-68
2024/02/13 06:15:55;;;;;;;16.80;7.55;;;;;;;4.31;100.00;101381.13;10339529;28;20038;-68
2024/02/13 06:20:56;;;;;;;21.05;7.85;;;;;;;4.27;100.00;101393.94;10338911;28;20434;-71
2024/02/13 06:25:58;;;;;;;7.93;5.78;;;;;;;4.25;100.00;101390.59;10336351;28;20058;-69
2024/02/13 06:30:59;;;;;;;11.27;6.85;;;;;;;4.20;100.00;101401.72;10337150;28;20038;-69
2024/02/13 06:35:59;;;;;;;22.13;7.82;;;;;;;4.17;100.00;101401.19;10337144;28;20431;-70
2024/02/13 06:41:00;;;;;;;7.72;6.88;;;;;;;4.09;100.00;101407.25;10335440;28;20039;-71
2024/02/13 06:46:01;;;;;;;25.77;8.63;;;;;;;4.03;100.00;101417.72;10336986;28;20038;-71
2024/02/13 06:51:02;;;;;;;18.13;8.98;;;;;;;4.01;100.00;101409.78;10335366;28;20402;-70
2024/02/13 06:56:03;;;;;;;15.20;5.68;;;;;;;4.01;100.00;101428.56;10337088;28;20038;-70
2024/02/13 07:01:04;;;;;;;14.57;5.45;;;;;;;4.04;100.00;101430.94;10351143;28;20038;-69
2024/02/13 07:06:05;;;;;;;8.40;4.95;;;;;;;4.01;100.00;101433.91;10335878;28;20034;-72
2024/02/13 07:11:05;;;;;;;16.25;5.32;;;;;;;3.98;100.00;101434.19;10335834;28;20057;-71
2024/02/13 07:16:06;;;;;;;6.47;5.35;;;;;;;4.03;100.00;101434.63;10335282;28;20062;-69
2024/02/13 07:21:07;;;;;;;10.98;6.72;;;;;;;4.08;100.00;101450.28;10342161;28;20038;-69
2024/02/13 07:26:11;;;;;;;12.00;5.13;;;;;;;4.22;100.00;101459.75;10336771;28;20474;-68
2024/02/13 07:31:11;;;;;;;6.68;5.75;;;;;;;4.27;100.00;101462.81;10335247;28;20128;-70
2024/02/13 07:36:12;;;;;;;12.55;6.63;;;;;;;4.48;100.00;101471.53;10334472;28;20041;-69
2024/02/13 07:41:12;;;;;;;11.23;6.07;;;;;;;4.74;100.00;101477.13;10333099;28;20039;-69
2024/02/13 07:46:14;;;;;;;12.90;5.85;;;;;;;5.17;100.00;101474.84;10335241;28;20034;-70
2024/02/13 07:51:16;;;;;;;10.45;5.60;;;;;;;5.61;100.00;101492.00;10366453;28;20165;-71
2024/02/13 07:56:19;;;;;;;13.80;5.80;;;;;;;6.05;100.00;101493.00;10335012;28;20049;-70
2024/02/13 08:01:22;;;;;;;11.82;5.72;;;;;;;6.46;100.00;101495.22;10349238;28;20050;-70
2024/02/13 08:06:23;;;;;;;3.45;3.15;;;;;;;6.71;100.00;101505.19;10349046;28;20065;-70
2024/02/13 08:11:23;;;;;;;8.50;3.70;;;;;;;6.98;100.00;101498.78;10333443;28;20088;-71
2024/02/13 08:16:23;;;;;;;6.47;4.32;;;;;;;7.42;100.00;101505.91;10332626;28;20045;-70
2024/02/13 08:21:24;;;;;;;9.43;4.35;;;;;;;7.52;100.00;101506.63;10331485;28;20042;-71
2024/02/13 08:26:25;;;;;;;11.48;5.32;;;;;;;8.02;100.00;101513.84;10316799;28;20084;-69
2024/02/13 08:31:26;;;;;;;3.90;3.42;;;;;;;8.22;100.00;101506.28;10334875;28;20443;-70
2024/02/13 08:36:26;;;;;;;16.85;4.72;;;;;;;8.57;100.00;101515.09;10334233;28;20125;-69
2024/02/13 08:41:26;;;;;;;5.53;3.22;;;;;;;9.17;100.00;101519.22;10331728;28;20042;-70
2024/02/13 08:46:27;;;;;;;10.82;3.80;;;;;;;9.17;100.00;101519.22;10315451;28;20030;-70
2024/02/13 08:51:28;;;;;;;8.82;2.63;;;;;;;8.42;100.00;101531.09;10332407;28;20035;-72
2024/02/13 08:56:28;;;;;;;7.82;3.13;;;;;;;7.78;100.00;101522.69;10333524;28;20034;-70
2024/02/13 09:01:29;;;;;;;13.52;4.45;;;;;;;7.53;100.00;101523.63;10347823;28;20073;-69
2024/02/13 09:06:31;;;;;;;11.02;3.88;;;;;;;8.05;100.00;101529.69;10332041;28;20473;-70
2024/02/13 09:11:33;;;;;;;6.25;3.55;;;;;;;8.66;100.00;101524.88;10330810;28;20110;-72
2024/02/13 09:16:33;;;;;;;8.52;3.35;;;;;;;8.84;100.00;101524.72;10348323;28;20408;-70
2024/02/13 09:21:34;;;;;;;3.55;3.25;;;;;;;8.85;100.00;101516.41;10333865;28;20128;-71
2024/02/13 09:26:34;;;;;;;6.22;3.60;;;;;;;9.33;100.00;101524.59;10363475;28;20575;-72
2024/02/13 09:31:35;;;;;;;3.05;2.83;;;;;;;8.96;100.00;101528.72;10331001;28;20118;-73
2024/02/13 09:36:37;;;;;;;6.93;3.95;;;;;;;9.14;100.00;101531.22;10318894;28;20030;-72
2024/02/13 09:41:41;;;;;;;12.70;3.55;;;;;;;9.70;100.00;101537.47;10336796;28;20034;-71
2024/02/13 09:46:41;;;;;;;9.50;3.88;;;;;;;9.66;100.00;101532.56;10337292;28;20038;-72
2024/02/13 09:51:42;;;;;;;5.82;3.47;;;;;;;9.86;100.00;101523.00;10337798;28;20057;-71
2024/02/13 09:56:43;;;;;;;16.73;3.22;;;;;;;9.62;100.00;101526.66;10338856;28;20097;-70
2024/02/13 10:01:44;;;;;;;6.43;2.15;;;;;;;9.55;100.00;101541.91;10336500;28;20092;-72
2024/02/13 10:06:44;;;;;;;5.10;3.33;;;;;;;9.63;100.00;101538.31;10336917;28;20034;-70
2024/02/13 10:11:48;;;;;;;8.77;2.67;;;;;;;10.53;100.00;101537.78;10337798;28;20450;-70
2024/02/13 10:16:50;;;;;;;3.60;2.25;;;;;;;10.33;100.00;101551.81;10336422;28;20407;-70
2024/02/13 10:21:51;;;;;;;4.30;2.83;;;;;;;9.81;100.00;101543.47;10339198;28;20478;-70
2024/02/13 10:26:51;;;;;;;3.22;2.67;;;;;;;9.60;100.00;101544.06;10338851;28;20082;-71
2024/02/13 10:32:05;;;;;;;4.82;3.03;;;;;;;9.54;100.00;101541.06;10337114;28;20074;-71
2024/02/13 10:37:08;;;;;;;9.85;3.22;;;;;;;10.10;100.00;101542.81;10338510;28;20118;-72
2024/02/13 10:42:09;;;;;;;5.25;3.17;;;;;;;10.50;100.00;101539.03;10352167;28;20042;-72
2024/02/13 10:47:15;;;;;;;2.60;2.40;;;;;;;10.84;100.00;101543.94;10335243;28;20113;-70
2024/02/13 10:52:15;;;;;;;8.30;2.60;;;;;;;10.90;100.00;101540.50;10336177;28;20041;-71
2024/02/13 10:57:16;;;;;;;3.65;3.08;;;;;;;11.67;100.00;101535.78;10334580;28;20030;-71
2024/02/13 11:02:20;;;;;;;5.28;2.95;;;;;;;11.98;100.00;101543.69;10336535;28;20126;-70
2024/02/13 11:07:20;;;;;;;3.40;2.92;;;;;;;13.10;100.00;101545.78;10334336;28;20062;-71
2024/02/13 11:12:21;;;;;;;1.83;1.70;;;;;;;13.07;100.00;101549.75;10335226;28;20030;-71
2024/02/13 11:17:23;;;;;;;2.55;2.35;;;;;;;12.95;100.00;101543.16;10350405;28;20426;-71
2024/02/13 11:22:37;;;;;;;7.28;1.92;;;;;;;13.46;100.00;101541.06;10317999;28;20478;-72
2024/02/13 11:27:40;;;;;;;6.13;3.08;;;;;;;13.33;100.00;101538.22;10318143;28;20034;-69
2024/02/13 11:32:40;;;;;;;3.25;2.15;;;;;;;12.63;100.00;101555.44;10333776;28;20467;-69
2024/02/13 11:37:41;;;;;;;3.25;2.60;;;;;;;11.82;100.00;101553.72;10317689;28;20038;-71
2024/02/13 11:42:41;;;;;;;2.97;2.72;;;;;;;11.18;100.00;101535.31;10333223;28;20490;-70
2024/02/13 11:47:42;;;;;;;5.70;3.22;;;;;;;10.45;100.00;101553.09;10336229;28;20461;-72
2024/02/13 11:52:43;;;;;;;2.90;2.45;;;;;;;10.28;100.00;101548.00;10335461;28;20347;-71
2024/02/13 11:57:44;;;;;;;6.35;2.63;;;;;;;10.43;100.00;101554.28;10334720;28;20340;-72
2024/02/13 12:02:49;;;;;;;5.32;2.85;;;;;;;10.48;100.00;101541.91;10332162;28;20058;-73
2024/02/13 12:07:51;;;;;;;5.68;3.63;;;;;;;10.55;100.00;101544.72;10333021;28;20030;-70
2024/02/13 12:12:52;;;;;;;7.68;2.67;;;;;;;10.47;100.00;101539.38;10333727;28;20038;-72
2024/02/13 12:17:57;;;;;;;2.80;2.30;;;;;;;10.35;100.00;101535.41;10348280;28;20053;-71
2024/02/13 12:23:05;;;;;;;9.13;3.40;;;;;;;10.30;100.00;101544.06;10317787;28;20047;-73
2024/02/13 12:28:06;;;;;;;4.57;2.67;;;;;;;9.97;100.00;101538.00;10332131;28;20149;-72
2024/02/13 12:33:06;;;;;;;6.90;4.10;;;;;;;9.98;100.00;101532.38;10332425;28;20170;-72
2024/02/13 12:38:11;;;;;;;5.00;3.00;;;;;;;9.83;100.00;101544.13;10347846;28;20037;-71
2024/02/13 12:43:15;;;;;;;2.65;2.45;;;;;;;9.54;100.00;101538.38;10332177;28;20046;-70
2024/02/13 12:48:15;;;;;;;22.02;3.50;;;;;;;9.91;100.00;101526.00;10331510;28;20502;-70
2024/02/13 12:53:20;;;;;;;3.00;2.58;;;;;;;10.02;100.00;101532.91;10334325;28;20039;-72
2024/02/13 12:58:21;;;;;;;2.45;1.90;;;;;;;10.33;100.00;101532.03;10332001;28;20031;-72
2024/02/13 13:03:22;;;;;;;2.17;2.00;;;;;;;10.72;100.00;101523.78;10333615;28;20449;-71
2024/02/13 13:08:22;;;;;;;6.72;1.65;;;;;;;10.74;100.00;101524.41;10346992;28;20092;-71
2024/02/13 13:13:23;;;;;;;1.75;1.65;;;;;;;11.31;100.00;101512.97;10332160;28;20121;-70
2024/02/13 13:18:23;;;;;;;3.03;2.03;;;;;;;11.51;100.00;101505.09;10339952;28;20141;-69
2024/02/13 13:23:24;;;;;;;1.92;1.83;;;;;;;11.03;100.00;101506.53;10340500;28;20054;-71
2024/02/13 13:28:28;;;;;;;2.53;2.33;;;;;;;10.57;100.00;101510.19;10354561;28;20419;-70
2024/02/13 13:33:32;;;;;;;4.32;2.92;;;;;;;10.34;100.00;101507.50;10339445;28;20478;-71
2024/02/13 13:38:33;;;;;;;3.80;3.45;;;;;;;10.31;100.00;101499.75;10339366;28;20108;-70
2024/02/13 13:43:33;;;;;;;3.83;3.35;;;;;;;10.36;100.00;101513.56;10339636;28;20038;-72
2024/02/13 13:48:34;;;;;;;3.63;3.22;;;;;;;10.52;100.00;101509.03;10339573;28;20435;-71
2024/02/13 13:53:35;;;;;;;6.22;2.50;;;;;;;10.42;100.00;101507.41;10339481;28;20074;-72
2024/02/13 13:58:36;;;;;;;6.18;2.95;;;;;;;10.33;100.00;101499.53;10339344;28;20066;-70
2024/02/13 14:03:37;;;;;;;2.85;2.65;;;;;;;10.36;100.00;101502.72;10343442;28;20110;-70
2024/02/13 14:08:38;;;;;;;10.05;3.20;;;;;;;10.12;100.00;101500.19;10353375;28;20141;-71
2024/02/13 14:13:39;;;;;;;8.05;3.60;;;;;;;10.08;100.00;101502.38;10336988;28;20050;-70
2024/02/13 14:18:39;;;;;;;3.10;2.65;;;;;;;9.75;100.00;101501.75;10338891;28;20041;-71
2024/02/13 14:23:40;;;;;;;3.75;3.42;;;;;;;9.71;100.00;101501.28;10340843;28;20065;-71
2024/02/13 14:28:42;;;;;;;4.75;3.00;;;;;;;9.78;100.00;101507.66;10338322;28;20046;-70
2024/02/13 14:33:43;;;;;;;8.55;2.50;;;;;;;9.96;100.00;101506.56;10336393;28;20502;-70
2024/02/13 14:38:44;;;;;;;7.07;2.35;;;;;;;9.99;100.00;101508.91;10319854;28;20030;-70
2024/02/13 14:43:47;;;;;;;2.90;2.45;;;;;;;9.96;100.00;101504.69;10336813;28;20079;-72
2024/02/13 14:48:48;;;;;;;4.95;1.77;;;;;;;9.72;100.00;101504.81;10336130;28;20037;-71
2024/02/13 14:53:48;;;;;;;5.93;2.58;;;;;;;9.71;100.00;101495.03;10338335;28;20057;-72
2024/02/13 14:58:49;;;;;;;2.47;1.70;;;;;;;9.50;100.00;101499.16;10336182;28;20050;-73
2024/02/13 15:03:49;;;;;;;2.58;2.38;;;;;;;9.47;100.00;101504.91;10335984;28;20042;-70
2024/02/13 15:08:51;;;;;;;6.00;2.10;;;;;;;9.48;100.00;101495.81;10318261;28;20494;-70
2024/02/13 15:13:53;;;;;;;5.43;1.95;;;;;;;9.26;100.00;101493.88;10336469;28;20073;-69
2024/02/13 15:18:55;;;;;;;5.68;2.75;;;;;;;9.01;100.00;101493.94;10337638;28;20125;-70
2024/02/13 15:23:56;;;;;;;2.47;1.85;;;;;;;8.74;100.00;101486.22;10336484;28;20058;-72
2024/02/13 15:28:56;;;;;;;2.95;2.63;;;;;;;8.52;100.00;101494.03;10334418;28;20046;-70
2024/02/13 15:33:57;;;;;;;10.60;2.72;;;;;;;8.23;100.00;101499.03;10334272;28;20374;-70
2024/02/13 15:49:45;;;;;;;0.60;0.60;;;;;;;8.13;100.00;101486.53;10333674;28;20046;-69
2024/02/13 15:54:47;;;;;;;0.57;0.57;;;;;;;7.97;100.00;101491.06;10335103;28;20041;-70
2024/02/13 15:59:48;;;;;;;0.50;0.50;;;;;;;7.99;100.00;101492.59;10334505;28;20129;-69
2024/02/13 16:04:48;;;;;;;2.20;1.90;;;;;;;7.84;100.00;101499.63;10333373;28;20336;-70
2024/02/13 16:09:49;;;;;;;0.70;0.70;;;;;;;7.89;100.00;101500.00;10333965;28;20038;-70
2024/02/13 16:14:49;;;;;;;0.50;0.50;;;;;;;7.91;100.00;101495.25;10339085;28;20042;-71
2024/02/13 16:19:52;;;;;;;0.52;0.52;;;;;;;7.83;100.00;101481.78;10333303;28;20041;-72
2024/02/13 16:24:53;;;;;;;0.40;0.40;;;;;;;7.79;100.00;101488.53;10333658;28;20046;-71
2024/02/13 16:29:54;;;;;;;0.60;0.60;;;;;;;7.72;100.00;101476.69;10332464;28;20048;-71
2024/02/13 16:34:54;;;;;;;0.40;0.40;;;;;;;7.66;100.00;101492.53;10334463;28;20194;-71
2024/02/13 16:39:55;;;;;;;0.50;0.50;;;;;;;7.63;100.00;101482.06;10317072;28;20082;-73
2024/02/13 16:44:56;;;;;;;0.50;0.50;;;;;;;7.66;100.00;101475.53;10331839;28;20038;-72
2024/02/13 16:49:57;;;;;;;0.80;0.80;;;;;;;7.65;100.00;101465.72;10347840;28;20038;-73
2024/02/13 16:54:58;;;;;;;0.60;0.60;;;;;;;7.71;100.00;101475.00;10331597;28;20077;-72
2024/02/13 16:59:58;;;;;;;2.00;1.90;;;;;;;7.60;100.00;101465.38;10333100;28;20069;-73
2024/02/13 17:04:58;;;;;;;0.50;0.50;;;;;;;7.63;100.00;101471.28;10331853;28;20066;-72
2024/02/13 17:09:59;;;;;;;0.68;0.68;;;;;;;7.57;100.00;101466.56;10332688;28;20097;-74
2024/02/13 17:14:59;;;;;;;0.45;0.45;;;;;;;7.60;100.00;101462.69;10330895;28;20031;-73
2024/02/13 17:20:03;;;;;;;0.40;0.40;;;;;;;7.54;100.00;101471.44;10331314;28;20182;-74
2024/02/13 17:25:06;;;;;;;0.50;0.50;;;;;;;7.50;100.00;101470.91;10331884;28;20053;-73
2024/02/13 17:30:09;;;;;;;0.45;0.45;;;;;;;7.51;100.00;101459.13;10330718;28;20119;-74
2024/02/13 17:35:10;;;;;;;0.60;0.60;;;;;;;7.54;100.00;101456.09;10330423;28;20598;-73
2024/02/13 17:40:13;;;;;;;0.70;0.70;;;;;;;7.53;100.00;101445.47;10314136;28;20166;-76
2024/02/13 17:45:13;;;;;;;0.50;0.50;;;;;;;7.46;100.00;101442.59;10347867;28;20438;-73
2024/02/13 17:50:13;;;;;;;0.47;0.47;;;;;;;7.42;100.00;101434.00;10333386;28;20039;-72
2024/02/13 17:55:17;;;;;;;0.47;0.47;;;;;;;7.50;100.00;101433.19;10332547;28;20126;-75
2024/02/13 18:00:19;;;;;;;0.50;0.50;;;;;;;7.50;100.00;101433.19;10333679;28;20462;-75
2024/02/13 18:05:20;;;;;;;0.47;0.47;;;;;;;7.56;100.00;101426.28;10337769;28;20034;-75
2024/02/13 18:10:20;;;;;;;0.40;0.40;;;;;;;7.59;100.00;101413.31;10339083;28;20041;-73
2024/02/13 18:15:21;;;;;;;0.45;0.45;;;;;;;7.54;100.00;101404.06;10338611;28;20038;-72
2024/02/13 18:20:22;;;;;;;0.50;0.50;;;;;;;7.54;100.00;101388.72;10339931;28;20084;-75
2024/02/13 18:25:23;;;;;;;1.48;1.48;;;;;;;7.50;100.00;101379.28;10341199;28;20664;-74
2024/02/13 18:30:24;;;;;;;2.90;2.75;;;;;;;7.52;100.00;101371.88;10345450;28;20115;-74
2024/02/13 18:35:26;;;;;;;0.60;0.60;;;;;;;7.53;100.00;101354.72;10339748;28;20494;-75
2024/02/13 18:40:27;;;;;;;1.95;1.85;;;;;;;7.53;100.00;101359.22;10352533;28;20027;-74
2024/02/13 18:45:28;;;;;;;1.15;1.15;;;;;;;7.57;100.00;101364.13;10337340;28;20125;-72
2024/02/13 18:50:30;;;;;;;0.50;0.50;;;;;;;7.57;100.00;101361.44;10337224;28;20124;-75
2024/02/13 18:55:31;;;;;;;0.52;0.52;;;;;;;7.59;100.00;101364.78;10336268;28;20105;-73
2024/02/13 19:00:32;;;;;;;0.50;0.50;;;;;;;7.62;100.00;101355.53;10336693;28;20077;-72
2024/02/13 19:05:32;;;;;;;0.75;0.75;;;;;;;7.67;100.00;101339.72;10336824;28;20035;-73
2024/02/13 19:10:33;;;;;;;0.60;0.60;;;;;;;7.63;100.00;101333.81;10318175;28;20030;-73
2024/02/13 19:15:33;;;;;;;0.50;0.50;;;;;;;7.61;100.00;101338.53;10319321;28;20064;-73
2024/02/13 19:20:34;;;;;;;0.50;0.50;;;;;;;7.66;100.00;101338.03;10336741;28;20446;-73
2024/02/13 19:25:34;;;;;;;0.40;0.40;;;;;;;7.64;100.00;101327.41;10334517;28;20050;-73
2024/02/13 19:30:35;;;;;;;0.32;0.32;;;;;;;7.74;100.00;101329.09;10319010;28;20125;-73
2024/02/13 19:35:35;;;;;;;0.30;0.30;;;;;;;7.80;100.00;101304.16;10334077;28;20038;-71
2024/02/13 19:40:38;;;;;;;0.70;0.70;;;;;;;7.77;100.00;101299.13;10335114;28;20061;-72
2024/02/13 19:45:42;;;;;;;0.43;0.43;;;;;;;7.78;100.00;101295.41;10366561;28;20462;-75
2024/02/13 19:50:42;;;;;;;0.45;0.45;;;;;;;7.82;100.00;101286.81;10334752;28;20038;-74
2024/02/13 19:55:43;;;;;;;35.42;5.28;;;;;;;7.79;100.00;101272.84;10333798;28;20076;-73
2024/02/13 20:00:43;;;;;;;0.30;0.30;;;;;;;7.83;100.00;101271.47;10337675;28;20120;-74
2024/02/13 20:05:44;;;;;;;0.85;0.85;;;;;;;7.98;100.00;101267.06;10336274;28;20209;-72
2024/02/13 20:10:44;;;;;;;0.50;0.50;;;;;;;7.89;100.00;101262.72;10336536;28;20478;-73
2024/02/13 20:15:45;;;;;;;1.08;1.00;;;;;;;8.11;100.00;101258.44;10338260;28;20104;-73
2024/02/13 20:20:45;;;;;;;0.50;0.50;;;;;;;8.21;100.00;101239.38;10338230;28;20069;-73
2024/02/13 20:25:46;;;;;;;6.93;3.15;;;;;;;8.25;100.00;101248.78;10336663;28;20151;-72
2024/02/13 20:30:46;;;;;;;0.35;0.35;;;;;;;8.14;100.00;101248.16;10336942;28;20073;-73
2024/02/13 20:35:59;;;;;;;0.93;0.93;;;;;;;7.83;100.00;101256.13;10334245;28;20400;-74
2024/02/13 20:41:00;;;;;;;0.60;0.60;;;;;;;7.74;100.00;101257.16;10369418;28;20035;-71
2024/02/13 20:46:01;;;;;;;3.03;2.38;;;;;;;7.54;100.00;101239.66;10333314;28;20038;-74
2024/02/13 20:51:04;;;;;;;0.40;0.40;;;;;;;7.50;100.00;101238.28;10331671;28;20117;-74
2024/02/13 20:56:05;;;;;;;0.80;0.80;;;;;;;7.52;100.00;101223.66;10340452;28;20359;-71
2024/02/13 21:01:05;;;;;;;1.40;1.40;;;;;;;7.40;100.00;101227.69;10353249;28;20044;-73
2024/02/13 21:06:06;;;;;;;5.68;2.30;;;;;;;7.44;100.00;101220.97;10316645;28;20030;-71
2024/02/13 21:11:06;;;;;;;0.47;0.47;;;;;;;7.45;100.00;101228.03;10334838;28;20046;-72
2024/02/13 21:16:08;;;;;;;0.50;0.50;;;;;;;7.35;100.00;101230.06;10333254;28;20026;-72
2024/02/13 21:26:27;;;;;;;0.50;0.50;;;;;;;7.33;100.00;101218.59;10346674;28;20062;-72
2024/02/13 21:31:28;;;;;;;1.55;1.55;;;;;;;7.28;100.00;101212.91;10344684;28;20062;-73
2024/02/13 21:36:29;;;;;;;1.30;1.30;;;;;;;7.29;100.00;101223.50;10351612;28;20114;-73
2024/02/13 21:41:30;;;;;;;0.95;0.95;;;;;;;7.37;100.00;101218.13;10350702;28;20038;-72
2024/02/13 21:46:30;;;;;;;0.50;0.50;;;;;;;7.44;100.00;101220.97;10352004;28;20062;-73
2024/02/13 21:51:30;;;;;;;0.70;0.70;;;;;;;7.49;100.00;101209.69;10349156;28;20030;-72
2024/02/13 21:56:31;;;;;;;0.60;0.60;;;;;;;7.45;100.00;101199.25;10355173;28;20034;-72
2024/02/13 22:01:32;;;;;;;1.23;1.23;;;;;;;7.54;100.00;101196.56;10341305;28;20030;-74
2024/02/13 22:06:34;;;;;;;0.70;0.70;;;;;;;7.53;100.00;101195.72;10348062;28;20387;-73
2024/02/13 22:11:34;;;;;;;1.98;1.95;;;;;;;7.62;100.00;101191.97;10354662;28;20064;-72
2024/02/13 22:16:35;;;;;;;0.57;0.57;;;;;;;7.65;100.00;101193.47;10354534;28;20030;-71
2024/02/13 22:21:35;;;;;;;0.40;0.40;;;;;;;7.70;100.00;101180.34;10356583;28;20383;-72
2024/02/13 22:26:38;;;;;;;0.80;0.80;;;;;;;7.75;100.00;101177.97;10357017;28;20054;-74
2024/02/13 22:31:38;;;;;;;0.70;0.70;;;;;;;7.83;100.00;101163.63;10331864;28;20045;-72
2024/02/13 22:36:39;;;;;;;0.40;0.40;;;;;;;7.88;100.00;101172.03;10355297;28;20034;-72
2024/02/13 22:41:39;;;;;;;1.63;1.52;;;;;;;7.94;100.00;101157.84;10342511;28;20058;-73
2024/02/13 22:46:40;;;;;;;0.50;0.50;;;;;;;8.02;100.00;101140.81;10342372;28;20465;-71
2024/02/13 22:51:40;;;;;;;0.57;0.57;;;;;;;8.03;100.00;101129.00;10343009;28;20038;-74
2024/02/13 22:56:42;;;;;;;0.50;0.50;;;;;;;8.08;100.00;101142.81;10338881;28;20061;-72
2024/02/13 23:01:42;;;;;;;0.50;0.50;;;;;;;8.17;100.00;101149.88;10335503;28;20216;-74
2024/02/13 23:06:43;;;;;;;0.60;0.60;;;;;;;8.18;100.00;101150.69;10337119;28;20350;-72
2024/02/13 23:11:44;;;;;;;0.95;0.95;;;;;;;8.21;100.00;101144.94;10337027;28;20376;-71
2024/02/13 23:16:45;;;;;;;1.48;1.38;;;;;;;8.24;100.00;101147.28;10334751;28;20049;-72